sensor_id;sensor_type;location;lat;lon;timestamp;P1;durP1;ratioP1;P2;durP2;ratioP2
57842;SDS011;43673;51.058;3.734;2023-07-09T00:02:25;18.48;;;11.38;;
57842;SDS011;43673;51.058;3.734;2023-07-09T00:04:52;21.60;;;12.77;;
57842;SDS011;43673;51.058;3.734;2023-07-09T00:07:29;15.75;;;12.52;;
57842;SDS011;43673;51.058;3.734;2023-07-09T00:09:57;16.02;;;11.27;;
57842;SDS011;43673;51.058;3.734;2023-07-09T00:12:23;16.33;;;12.65;;
57842;SDS011;43673;51.058;3.734;2023-07-09T00:14:49;13.57;;;11.25;;
57842;SDS011;43673;51.058;3.734;2023-07-09T00:17:19;19.00;;;13.65;;
57842;SDS011;43673;51.058;3.734;2023-07-09T00:19:50;18.75;;;12.43;;
57842;SDS011;43673;51.058;3.734;2023-07-09T00:22:17;16.15;;;12.18;;
57842;SDS011;43673;51.058;3.734;2023-07-09T00:24:44;16.77;;;12.57;;
57842;SDS011;43673;51.058;3.734;2023-07-09T00:27:12;19.67;;;13.87;;
57842;SDS011;43673;51.058;3.734;2023-07-09T00:29:40;25.38;;;14.25;;
57842;SDS011;43673;51.058;3.734;2023-07-09T00:32:16;22.48;;;13.00;;
57842;SDS011;43673;51.058;3.734;2023-07-09T00:34:48;14.45;;;11.85;;
57842;SDS011;43673;51.058;3.734;2023-07-09T00:37:16;17.40;;;13.18;;
57842;SDS011;43673;51.058;3.734;2023-07-09T00:39:43;20.52;;;14.50;;
57842;SDS011;43673;51.058;3.734;2023-07-09T00:42:11;23.02;;;15.07;;
57842;SDS011;43673;51.058;3.734;2023-07-09T00:44:45;22.83;;;16.48;;
57842;SDS011;43673;51.058;3.734;2023-07-09T00:49:50;24.20;;;18.17;;
57842;SDS011;43673;51.058;3.734;2023-07-09T00:52:42;27.30;;;20.40;;
57842;SDS011;43673;51.058;3.734;2023-07-09T00:55:19;32.92;;;22.65;;
57842;SDS011;43673;51.058;3.734;2023-07-09T00:57:48;26.95;;;21.85;;
57842;SDS011;43673;51.058;3.734;2023-07-09T01:00:21;32.08;;;24.98;;
57842;SDS011;43673;51.058;3.734;2023-07-09T01:03:18;34.75;;;26.20;;
57842;SDS011;43673;51.058;3.734;2023-07-09T01:05:46;33.83;;;26.75;;
57842;SDS011;43673;51.058;3.734;2023-07-09T01:08:17;39.17;;;29.58;;
57842;SDS011;43673;51.058;3.734;2023-07-09T01:10:44;49.20;;;38.58;;
57842;SDS011;43673;51.058;3.734;2023-07-09T01:13:10;54.47;;;41.95;;
57842;SDS011;43673;51.058;3.734;2023-07-09T01:15:36;51.65;;;42.95;;
57842;SDS011;43673;51.058;3.734;2023-07-09T01:18:05;64.82;;;49.40;;
57842;SDS011;43673;51.058;3.734;2023-07-09T01:20:31;63.20;;;50.60;;
57842;SDS011;43673;51.058;3.734;2023-07-09T01:22:58;64.25;;;55.70;;
57842;SDS011;43673;51.058;3.734;2023-07-09T01:25:26;75.38;;;59.30;;
57842;SDS011;43673;51.058;3.734;2023-07-09T01:27:53;77.97;;;62.60;;
57842;SDS011;43673;51.058;3.734;2023-07-09T01:30:22;78.50;;;65.15;;
57842;SDS011;43673;51.058;3.734;2023-07-09T01:32:55;82.68;;;68.00;;
57842;SDS011;43673;51.058;3.734;2023-07-09T01:35:23;87.30;;;70.13;;
57842;SDS011;43673;51.058;3.734;2023-07-09T01:37:51;87.22;;;69.82;;
57842;SDS011;43673;51.058;3.734;2023-07-09T01:40:18;92.10;;;70.32;;
57842;SDS011;43673;51.058;3.734;2023-07-09T01:42:46;85.38;;;67.95;;
57842;SDS011;43673;51.058;3.734;2023-07-09T01:45:11;93.63;;;74.93;;
57842;SDS011;43673;51.058;3.734;2023-07-09T01:47:37;86.93;;;73.10;;
57842;SDS011;43673;51.058;3.734;2023-07-09T01:50:05;90.75;;;73.55;;
57842;SDS011;43673;51.058;3.734;2023-07-09T01:52:31;95.72;;;75.78;;
57842;SDS011;43673;51.058;3.734;2023-07-09T01:54:58;95.43;;;77.05;;
57842;SDS011;43673;51.058;3.734;2023-07-09T01:57:27;93.07;;;74.20;;
57842;SDS011;43673;51.058;3.734;2023-07-09T01:59:58;95.72;;;76.18;;
57842;SDS011;43673;51.058;3.734;2023-07-09T02:02:26;98.75;;;77.93;;
57842;SDS011;43673;51.058;3.734;2023-07-09T02:04:53;103.20;;;79.00;;
57842;SDS011;43673;51.058;3.734;2023-07-09T02:07:21;100.50;;;81.18;;
57842;SDS011;43673;51.058;3.734;2023-07-09T02:09:48;94.60;;;76.82;;
57842;SDS011;43673;51.058;3.734;2023-07-09T02:12:14;95.50;;;78.88;;
57842;SDS011;43673;51.058;3.734;2023-07-09T02:14:41;95.30;;;79.28;;
57842;SDS011;43673;51.058;3.734;2023-07-09T02:17:08;103.55;;;83.13;;
57842;SDS011;43673;51.058;3.734;2023-07-09T02:19:35;101.55;;;80.70;;
57842;SDS011;43673;51.058;3.734;2023-07-09T02:22:02;101.80;;;81.82;;
57842;SDS011;43673;51.058;3.734;2023-07-09T02:24:28;105.40;;;86.30;;
57842;SDS011;43673;51.058;3.734;2023-07-09T02:26:54;108.75;;;86.82;;
57842;SDS011;43673;51.058;3.734;2023-07-09T02:29:23;104.88;;;85.05;;
57842;SDS011;43673;51.058;3.734;2023-07-09T02:31:51;110.47;;;88.72;;
57842;SDS011;43673;51.058;3.734;2023-07-09T02:34:19;107.15;;;85.57;;
57842;SDS011;43673;51.058;3.734;2023-07-09T02:36:45;108.88;;;85.15;;
57842;SDS011;43673;51.058;3.734;2023-07-09T02:39:12;103.07;;;83.10;;
57842;SDS011;43673;51.058;3.734;2023-07-09T02:41:39;112.18;;;90.13;;
57842;SDS011;43673;51.058;3.734;2023-07-09T02:44:05;101.45;;;85.50;;
57842;SDS011;43673;51.058;3.734;2023-07-09T02:46:32;110.15;;;86.75;;
57842;SDS011;43673;51.058;3.734;2023-07-09T02:48:58;109.88;;;87.97;;
57842;SDS011;43673;51.058;3.734;2023-07-09T02:51:24;116.88;;;92.43;;
57842;SDS011;43673;51.058;3.734;2023-07-09T02:53:53;119.47;;;91.60;;
57842;SDS011;43673;51.058;3.734;2023-07-09T02:56:23;116.82;;;92.07;;
57842;SDS011;43673;51.058;3.734;2023-07-09T02:58:49;118.15;;;92.05;;
57842;SDS011;43673;51.058;3.734;2023-07-09T03:01:15;113.72;;;91.43;;
57842;SDS011;43673;51.058;3.734;2023-07-09T03:03:41;122.50;;;96.72;;
57842;SDS011;43673;51.058;3.734;2023-07-09T03:06:08;120.72;;;94.20;;
57842;SDS011;43673;51.058;3.734;2023-07-09T03:08:34;115.13;;;91.13;;
57842;SDS011;43673;51.058;3.734;2023-07-09T03:11:00;117.00;;;89.07;;
57842;SDS011;43673;51.058;3.734;2023-07-09T03:13:36;108.47;;;86.13;;
57842;SDS011;43673;51.058;3.734;2023-07-09T03:16:02;118.20;;;92.50;;
57842;SDS011;43673;51.058;3.734;2023-07-09T03:18:28;115.63;;;91.53;;
57842;SDS011;43673;51.058;3.734;2023-07-09T03:20:54;121.57;;;95.28;;
57842;SDS011;43673;51.058;3.734;2023-07-09T03:23:20;112.68;;;88.60;;
57842;SDS011;43673;51.058;3.734;2023-07-09T03:25:46;114.68;;;88.80;;
57842;SDS011;43673;51.058;3.734;2023-07-09T03:28:12;111.63;;;89.70;;
57842;SDS011;43673;51.058;3.734;2023-07-09T03:30:42;119.10;;;93.72;;
57842;SDS011;43673;51.058;3.734;2023-07-09T03:33:12;118.15;;;90.55;;
57842;SDS011;43673;51.058;3.734;2023-07-09T03:35:39;115.65;;;90.57;;
57842;SDS011;43673;51.058;3.734;2023-07-09T03:38:06;106.35;;;85.97;;
57842;SDS011;43673;51.058;3.734;2023-07-09T03:40:33;111.35;;;86.10;;
57842;SDS011;43673;51.058;3.734;2023-07-09T03:42:59;111.85;;;88.47;;
57842;SDS011;43673;51.058;3.734;2023-07-09T03:45:25;114.38;;;87.75;;
57842;SDS011;43673;51.058;3.734;2023-07-09T03:47:50;116.93;;;90.22;;
57842;SDS011;43673;51.058;3.734;2023-07-09T03:50:16;115.72;;;91.45;;
57842;SDS011;43673;51.058;3.734;2023-07-09T03:52:42;112.93;;;91.07;;
57842;SDS011;43673;51.058;3.734;2023-07-09T03:55:08;120.15;;;93.43;;
57842;SDS011;43673;51.058;3.734;2023-07-09T03:57:34;120.97;;;93.07;;
57842;SDS011;43673;51.058;3.734;2023-07-09T04:00:00;120.63;;;94.45;;
57842;SDS011;43673;51.058;3.734;2023-07-09T04:02:28;127.35;;;99.10;;
57842;SDS011;43673;51.058;3.734;2023-07-09T04:04:54;130.73;;;102.00;;
57842;SDS011;43673;51.058;3.734;2023-07-09T04:07:20;127.68;;;100.18;;
57842;SDS011;43673;51.058;3.734;2023-07-09T04:09:45;131.88;;;97.75;;
57842;SDS011;43673;51.058;3.734;2023-07-09T04:12:11;133.02;;;102.15;;
57842;SDS011;43673;51.058;3.734;2023-07-09T04:14:37;128.80;;;100.20;;
57842;SDS011;43673;51.058;3.734;2023-07-09T04:17:03;127.53;;;99.82;;
57842;SDS011;43673;51.058;3.734;2023-07-09T04:19:29;121.85;;;94.53;;
57842;SDS011;43673;51.058;3.734;2023-07-09T04:21:54;127.68;;;99.47;;
57842;SDS011;43673;51.058;3.734;2023-07-09T04:24:20;130.18;;;97.57;;
57842;SDS011;43673;51.058;3.734;2023-07-09T04:26:46;125.72;;;94.82;;
57842;SDS011;43673;51.058;3.734;2023-07-09T04:29:12;125.75;;;94.93;;
57842;SDS011;43673;51.058;3.734;2023-07-09T04:31:39;127.68;;;94.28;;
57842;SDS011;43673;51.058;3.734;2023-07-09T04:34:05;119.63;;;91.32;;
57842;SDS011;43673;51.058;3.734;2023-07-09T04:36:32;128.27;;;95.15;;
57842;SDS011;43673;51.058;3.734;2023-07-09T04:38:58;119.28;;;91.72;;
57842;SDS011;43673;51.058;3.734;2023-07-09T04:41:24;115.82;;;89.55;;
57842;SDS011;43673;51.058;3.734;2023-07-09T04:43:50;114.22;;;89.25;;
57842;SDS011;43673;51.058;3.734;2023-07-09T04:46:15;126.07;;;95.80;;
57842;SDS011;43673;51.058;3.734;2023-07-09T04:48:41;111.22;;;86.70;;
57842;SDS011;43673;51.058;3.734;2023-07-09T04:51:07;109.55;;;84.22;;
57842;SDS011;43673;51.058;3.734;2023-07-09T04:53:33;108.82;;;83.15;;
57842;SDS011;43673;51.058;3.734;2023-07-09T04:55:59;112.25;;;87.32;;
57842;SDS011;43673;51.058;3.734;2023-07-09T04:58:25;108.97;;;80.45;;
57842;SDS011;43673;51.058;3.734;2023-07-09T05:00:51;95.88;;;75.38;;
57842;SDS011;43673;51.058;3.734;2023-07-09T05:03:18;101.32;;;75.93;;
57842;SDS011;43673;51.058;3.734;2023-07-09T05:05:44;89.88;;;68.60;;
57842;SDS011;43673;51.058;3.734;2023-07-09T05:08:11;93.03;;;72.88;;
57842;SDS011;43673;51.058;3.734;2023-07-09T05:10:44;95.60;;;72.25;;
57842;SDS011;43673;51.058;3.734;2023-07-09T05:13:15;91.20;;;69.80;;
57842;SDS011;43673;51.058;3.734;2023-07-09T05:15:42;82.65;;;66.55;;
57842;SDS011;43673;51.058;3.734;2023-07-09T05:18:10;85.35;;;62.10;;
57842;SDS011;43673;51.058;3.734;2023-07-09T05:20:36;83.22;;;60.92;;
57842;SDS011;43673;51.058;3.734;2023-07-09T05:23:02;77.47;;;58.05;;
57842;SDS011;43673;51.058;3.734;2023-07-09T05:25:28;73.18;;;56.22;;
57842;SDS011;43673;51.058;3.734;2023-07-09T05:27:54;69.20;;;55.28;;
57842;SDS011;43673;51.058;3.734;2023-07-09T05:30:20;63.83;;;50.95;;
57842;SDS011;43673;51.058;3.734;2023-07-09T05:32:45;63.30;;;50.42;;
57842;SDS011;43673;51.058;3.734;2023-07-09T05:35:11;61.63;;;49.22;;
57842;SDS011;43673;51.058;3.734;2023-07-09T05:37:37;66.32;;;51.40;;
57842;SDS011;43673;51.058;3.734;2023-07-09T05:40:06;62.17;;;52.88;;
57842;SDS011;43673;51.058;3.734;2023-07-09T05:42:33;56.55;;;46.95;;
57842;SDS011;43673;51.058;3.734;2023-07-09T05:44:59;61.28;;;48.63;;
57842;SDS011;43673;51.058;3.734;2023-07-09T05:47:25;58.10;;;47.70;;
57842;SDS011;43673;51.058;3.734;2023-07-09T05:49:52;55.90;;;42.80;;
57842;SDS011;43673;51.058;3.734;2023-07-09T05:52:18;56.03;;;45.65;;
57842;SDS011;43673;51.058;3.734;2023-07-09T05:54:44;51.30;;;39.88;;
57842;SDS011;43673;51.058;3.734;2023-07-09T05:57:11;45.08;;;38.67;;
57842;SDS011;43673;51.058;3.734;2023-07-09T05:59:37;49.42;;;41.90;;
57842;SDS011;43673;51.058;3.734;2023-07-09T06:02:03;50.22;;;42.50;;
57842;SDS011;43673;51.058;3.734;2023-07-09T06:04:29;49.17;;;39.72;;
57842;SDS011;43673;51.058;3.734;2023-07-09T06:06:58;50.42;;;38.58;;
57842;SDS011;43673;51.058;3.734;2023-07-09T06:09:23;50.20;;;37.55;;
57842;SDS011;43673;51.058;3.734;2023-07-09T06:11:49;42.10;;;35.45;;
57842;SDS011;43673;51.058;3.734;2023-07-09T06:14:16;39.22;;;32.42;;
57842;SDS011;43673;51.058;3.734;2023-07-09T06:16:42;39.88;;;31.85;;
57842;SDS011;43673;51.058;3.734;2023-07-09T06:19:08;44.03;;;34.35;;
57842;SDS011;43673;51.058;3.734;2023-07-09T06:21:35;35.55;;;29.40;;
57842;SDS011;43673;51.058;3.734;2023-07-09T06:24:00;32.58;;;28.83;;
57842;SDS011;43673;51.058;3.734;2023-07-09T06:26:26;38.28;;;30.55;;
57842;SDS011;43673;51.058;3.734;2023-07-09T06:28:52;34.92;;;26.83;;
57842;SDS011;43673;51.058;3.734;2023-07-09T06:31:18;35.58;;;29.90;;
57842;SDS011;43673;51.058;3.734;2023-07-09T06:33:45;29.02;;;25.63;;
57842;SDS011;43673;51.058;3.734;2023-07-09T06:36:12;30.70;;;22.92;;
57842;SDS011;43673;51.058;3.734;2023-07-09T06:38:38;28.17;;;21.65;;
57842;SDS011;43673;51.058;3.734;2023-07-09T06:41:03;28.83;;;22.08;;
57842;SDS011;43673;51.058;3.734;2023-07-09T06:43:29;25.08;;;19.88;;
57842;SDS011;43673;51.058;3.734;2023-07-09T06:46:00;28.65;;;22.45;;
57842;SDS011;43673;51.058;3.734;2023-07-09T06:50:53;25.27;;;18.90;;
57842;SDS011;43673;51.058;3.734;2023-07-09T06:53:20;21.05;;;17.48;;
57842;SDS011;43673;51.058;3.734;2023-07-09T06:55:47;23.80;;;19.02;;
57842;SDS011;43673;51.058;3.734;2023-07-09T06:58:18;20.40;;;16.67;;
57842;SDS011;43673;51.058;3.734;2023-07-09T07:00:44;19.55;;;15.82;;
57842;SDS011;43673;51.058;3.734;2023-07-09T07:03:10;17.60;;;13.18;;
57842;SDS011;43673;51.058;3.734;2023-07-09T07:05:36;18.35;;;12.85;;
57842;SDS011;43673;51.058;3.734;2023-07-09T07:08:02;14.98;;;10.70;;
57842;SDS011;43673;51.058;3.734;2023-07-09T07:10:28;15.73;;;10.57;;
57842;SDS011;43673;51.058;3.734;2023-07-09T07:12:55;16.27;;;11.43;;
57842;SDS011;43673;51.058;3.734;2023-07-09T07:15:21;14.20;;;9.45;;
57842;SDS011;43673;51.058;3.734;2023-07-09T07:17:47;12.38;;;8.80;;
57842;SDS011;43673;51.058;3.734;2023-07-09T07:20:13;11.63;;;9.20;;
57842;SDS011;43673;51.058;3.734;2023-07-09T07:22:40;11.23;;;9.50;;
57842;SDS011;43673;51.058;3.734;2023-07-09T07:25:06;18.58;;;11.68;;
57842;SDS011;43673;51.058;3.734;2023-07-09T07:27:33;11.88;;;9.80;;
57842;SDS011;43673;51.058;3.734;2023-07-09T07:30:00;15.32;;;9.82;;
57842;SDS011;43673;51.058;3.734;2023-07-09T07:32:26;13.30;;;10.60;;
57842;SDS011;43673;51.058;3.734;2023-07-09T07:34:52;12.57;;;9.52;;
57842;SDS011;43673;51.058;3.734;2023-07-09T07:37:19;12.90;;;10.05;;
57842;SDS011;43673;51.058;3.734;2023-07-09T07:39:46;13.35;;;10.48;;
57842;SDS011;43673;51.058;3.734;2023-07-09T07:42:12;11.77;;;9.77;;
57842;SDS011;43673;51.058;3.734;2023-07-09T07:44:37;14.13;;;10.95;;
57842;SDS011;43673;51.058;3.734;2023-07-09T07:47:04;13.40;;;9.80;;
57842;SDS011;43673;51.058;3.734;2023-07-09T07:49:30;12.40;;;9.05;;
57842;SDS011;43673;51.058;3.734;2023-07-09T07:51:56;8.63;;;7.72;;
57842;SDS011;43673;51.058;3.734;2023-07-09T07:54:22;10.38;;;7.78;;
57842;SDS011;43673;51.058;3.734;2023-07-09T07:56:48;8.38;;;6.55;;
57842;SDS011;43673;51.058;3.734;2023-07-09T07:59:13;11.02;;;5.65;;
57842;SDS011;43673;51.058;3.734;2023-07-09T08:01:40;7.63;;;5.75;;
57842;SDS011;43673;51.058;3.734;2023-07-09T08:04:08;8.98;;;5.43;;
57842;SDS011;43673;51.058;3.734;2023-07-09T08:06:34;6.93;;;5.95;;
57842;SDS011;43673;51.058;3.734;2023-07-09T08:09:00;7.40;;;5.85;;
57842;SDS011;43673;51.058;3.734;2023-07-09T08:11:26;7.95;;;5.72;;
57842;SDS011;43673;51.058;3.734;2023-07-09T08:13:53;8.80;;;5.40;;
57842;SDS011;43673;51.058;3.734;2023-07-09T08:16:19;9.20;;;6.18;;
57842;SDS011;43673;51.058;3.734;2023-07-09T08:18:44;7.57;;;5.53;;
57842;SDS011;43673;51.058;3.734;2023-07-09T08:21:10;8.27;;;6.35;;
57842;SDS011;43673;51.058;3.734;2023-07-09T08:23:36;10.43;;;6.30;;
57842;SDS011;43673;51.058;3.734;2023-07-09T08:26:02;10.60;;;5.78;;
57842;SDS011;43673;51.058;3.734;2023-07-09T08:28:29;9.55;;;6.78;;
57842;SDS011;43673;51.058;3.734;2023-07-09T08:30:55;7.82;;;6.47;;
57842;SDS011;43673;51.058;3.734;2023-07-09T08:33:22;12.95;;;8.07;;
57842;SDS011;43673;51.058;3.734;2023-07-09T08:35:49;10.85;;;6.47;;
57842;SDS011;43673;51.058;3.734;2023-07-09T08:38:15;11.93;;;7.00;;
57842;SDS011;43673;51.058;3.734;2023-07-09T08:40:41;6.28;;;5.63;;
57842;SDS011;43673;51.058;3.734;2023-07-09T08:43:21;7.65;;;5.43;;
57842;SDS011;43673;51.058;3.734;2023-07-09T08:46:14;11.02;;;6.03;;
57842;SDS011;43673;51.058;3.734;2023-07-09T08:48:42;7.13;;;5.55;;
57842;SDS011;43673;51.058;3.734;2023-07-09T08:51:44;7.50;;;5.53;;
57842;SDS011;43673;51.058;3.734;2023-07-09T08:54:07;9.65;;;6.63;;
57842;SDS011;43673;51.058;3.734;2023-07-09T08:56:39;11.00;;;6.45;;
57842;SDS011;43673;51.058;3.734;2023-07-09T08:59:07;8.35;;;6.28;;
57842;SDS011;43673;51.058;3.734;2023-07-09T09:01:37;10.38;;;5.57;;
57842;SDS011;43673;51.058;3.734;2023-07-09T09:04:24;8.55;;;5.63;;
57842;SDS011;43673;51.058;3.734;2023-07-09T09:07:19;10.90;;;6.47;;
57842;SDS011;43673;51.058;3.734;2023-07-09T09:10:00;8.75;;;6.57;;
57842;SDS011;43673;51.058;3.734;2023-07-09T09:12:29;8.05;;;5.95;;
57842;SDS011;43673;51.058;3.734;2023-07-09T09:15:09;6.75;;;5.55;;
57842;SDS011;43673;51.058;3.734;2023-07-09T09:17:39;7.50;;;5.63;;
57842;SDS011;43673;51.058;3.734;2023-07-09T09:20:07;9.95;;;6.13;;
57842;SDS011;43673;51.058;3.734;2023-07-09T09:22:40;11.23;;;5.57;;
57842;SDS011;43673;51.058;3.734;2023-07-09T09:27:55;7.20;;;6.15;;
57842;SDS011;43673;51.058;3.734;2023-07-09T09:30:22;5.57;;;4.55;;
57842;SDS011;43673;51.058;3.734;2023-07-09T09:35:19;7.32;;;5.60;;
57842;SDS011;43673;51.058;3.734;2023-07-09T09:37:53;7.65;;;6.05;;
57842;SDS011;43673;51.058;3.734;2023-07-09T09:40:21;6.78;;;4.68;;
57842;SDS011;43673;51.058;3.734;2023-07-09T09:42:48;5.47;;;4.65;;
57842;SDS011;43673;51.058;3.734;2023-07-09T09:45:16;8.40;;;4.82;;
57842;SDS011;43673;51.058;3.734;2023-07-09T09:47:44;6.47;;;4.82;;
57842;SDS011;43673;51.058;3.734;2023-07-09T09:50:14;10.32;;;6.60;;
57842;SDS011;43673;51.058;3.734;2023-07-09T09:52:41;8.60;;;5.13;;
57842;SDS011;43673;51.058;3.734;2023-07-09T09:55:16;7.55;;;4.63;;
57842;SDS011;43673;51.058;3.734;2023-07-09T09:57:50;9.60;;;5.45;;
57842;SDS011;43673;51.058;3.734;2023-07-09T10:00:18;6.05;;;4.30;;
57842;SDS011;43673;51.058;3.734;2023-07-09T10:02:47;8.30;;;4.60;;
57842;SDS011;43673;51.058;3.734;2023-07-09T10:05:29;8.80;;;4.88;;
57842;SDS011;43673;51.058;3.734;2023-07-09T10:08:17;7.20;;;4.80;;
57842;SDS011;43673;51.058;3.734;2023-07-09T10:10:47;10.77;;;5.47;;
57842;SDS011;43673;51.058;3.734;2023-07-09T10:21:23;6.70;;;4.25;;
57842;SDS011;43673;51.058;3.734;2023-07-09T10:26:45;6.65;;;5.00;;
57842;SDS011;43673;51.058;3.734;2023-07-09T10:37:05;7.82;;;4.63;;
57842;SDS011;43673;51.058;3.734;2023-07-09T10:39:37;8.25;;;5.05;;
57842;SDS011;43673;51.058;3.734;2023-07-09T10:42:11;10.65;;;6.10;;
57842;SDS011;43673;51.058;3.734;2023-07-09T10:45:07;11.02;;;5.47;;
57842;SDS011;43673;51.058;3.734;2023-07-09T10:47:35;10.38;;;5.78;;
57842;SDS011;43673;51.058;3.734;2023-07-09T10:50:05;10.65;;;5.53;;
57842;SDS011;43673;51.058;3.734;2023-07-09T10:52:40;14.35;;;5.45;;
57842;SDS011;43673;51.058;3.734;2023-07-09T10:55:15;8.73;;;6.43;;
57842;SDS011;43673;51.058;3.734;2023-07-09T11:00:34;14.10;;;6.25;;
57842;SDS011;43673;51.058;3.734;2023-07-09T11:03:15;17.10;;;5.18;;
57842;SDS011;43673;51.058;3.734;2023-07-09T11:05:44;11.50;;;6.00;;
57842;SDS011;43673;51.058;3.734;2023-07-09T11:08:14;9.57;;;6.07;;
57842;SDS011;43673;51.058;3.734;2023-07-09T11:10:50;8.75;;;5.35;;
57842;SDS011;43673;51.058;3.734;2023-07-09T11:13:23;10.90;;;5.88;;
57842;SDS011;43673;51.058;3.734;2023-07-09T11:16:03;10.38;;;6.15;;
57842;SDS011;43673;51.058;3.734;2023-07-09T11:18:32;9.35;;;5.60;;
57842;SDS011;43673;51.058;3.734;2023-07-09T11:21:03;15.13;;;7.40;;
57842;SDS011;43673;51.058;3.734;2023-07-09T11:23:38;13.35;;;7.70;;
57842;SDS011;43673;51.058;3.734;2023-07-09T11:26:11;14.43;;;6.67;;
57842;SDS011;43673;51.058;3.734;2023-07-09T11:28:52;13.35;;;7.35;;
57842;SDS011;43673;51.058;3.734;2023-07-09T11:31:21;16.63;;;9.02;;
57842;SDS011;43673;51.058;3.734;2023-07-09T11:33:56;15.07;;;8.80;;
57842;SDS011;43673;51.058;3.734;2023-07-09T11:36:27;15.35;;;9.65;;
57842;SDS011;43673;51.058;3.734;2023-07-09T11:38:56;12.93;;;8.93;;
57842;SDS011;43673;51.058;3.734;2023-07-09T11:49:31;80.55;;;18.60;;
57842;SDS011;43673;51.058;3.734;2023-07-09T11:52:04;16.58;;;11.90;;
57842;SDS011;43673;51.058;3.734;2023-07-09T11:54:34;17.23;;;11.98;;
57842;SDS011;43673;51.058;3.734;2023-07-09T11:57:05;20.73;;;12.43;;
57842;SDS011;43673;51.058;3.734;2023-07-09T11:59:41;17.92;;;12.82;;
57842;SDS011;43673;51.058;3.734;2023-07-09T12:02:20;22.88;;;13.40;;
57842;SDS011;43673;51.058;3.734;2023-07-09T12:04:47;17.40;;;11.68;;
57842;SDS011;43673;51.058;3.734;2023-07-09T12:07:15;24.05;;;12.38;;
57842;SDS011;43673;51.058;3.734;2023-07-09T12:09:43;18.95;;;11.65;;
57842;SDS011;43673;51.058;3.734;2023-07-09T12:12:25;21.52;;;12.50;;
57842;SDS011;43673;51.058;3.734;2023-07-09T12:14:52;20.83;;;13.77;;
57842;SDS011;43673;51.058;3.734;2023-07-09T12:17:22;22.70;;;13.15;;
57842;SDS011;43673;51.058;3.734;2023-07-09T12:19:51;23.75;;;13.63;;
57842;SDS011;43673;51.058;3.734;2023-07-09T12:22:19;18.20;;;11.75;;
57842;SDS011;43673;51.058;3.734;2023-07-09T12:24:46;18.48;;;12.73;;
57842;SDS011;43673;51.058;3.734;2023-07-09T12:27:21;16.85;;;13.15;;
57842;SDS011;43673;51.058;3.734;2023-07-09T12:29:50;18.55;;;12.52;;
57842;SDS011;43673;51.058;3.734;2023-07-09T12:32:19;17.70;;;12.00;;
57842;SDS011;43673;51.058;3.734;2023-07-09T12:34:50;20.67;;;13.80;;
57842;SDS011;43673;51.058;3.734;2023-07-09T12:37:17;17.60;;;11.90;;
57842;SDS011;43673;51.058;3.734;2023-07-09T12:39:44;22.67;;;12.23;;
57842;SDS011;43673;51.058;3.734;2023-07-09T12:42:14;22.10;;;11.80;;
57842;SDS011;43673;51.058;3.734;2023-07-09T12:44:42;20.60;;;13.15;;
57842;SDS011;43673;51.058;3.734;2023-07-09T12:47:12;15.88;;;11.43;;
57842;SDS011;43673;51.058;3.734;2023-07-09T12:49:40;13.70;;;11.35;;
57842;SDS011;43673;51.058;3.734;2023-07-09T12:52:17;14.55;;;10.57;;
57842;SDS011;43673;51.058;3.734;2023-07-09T12:55:18;18.52;;;12.52;;
57842;SDS011;43673;51.058;3.734;2023-07-09T12:57:50;20.55;;;13.02;;
57842;SDS011;43673;51.058;3.734;2023-07-09T13:00:17;21.60;;;14.50;;
57842;SDS011;43673;51.058;3.734;2023-07-09T13:02:43;24.92;;;16.23;;
57842;SDS011;43673;51.058;3.734;2023-07-09T13:05:18;24.17;;;16.10;;
57842;SDS011;43673;51.058;3.734;2023-07-09T13:07:46;26.65;;;16.17;;
57842;SDS011;43673;51.058;3.734;2023-07-09T13:10:22;29.65;;;16.65;;
57842;SDS011;43673;51.058;3.734;2023-07-09T13:13:00;29.90;;;17.50;;
57842;SDS011;43673;51.058;3.734;2023-07-09T13:15:29;28.67;;;18.38;;
57842;SDS011;43673;51.058;3.734;2023-07-09T13:18:02;29.30;;;19.10;;
57842;SDS011;43673;51.058;3.734;2023-07-09T13:20:30;32.42;;;19.38;;
57842;SDS011;43673;51.058;3.734;2023-07-09T13:22:58;28.00;;;20.23;;
57842;SDS011;43673;51.058;3.734;2023-07-09T13:25:24;32.95;;;20.83;;
57842;SDS011;43673;51.058;3.734;2023-07-09T13:27:50;26.90;;;18.52;;
57842;SDS011;43673;51.058;3.734;2023-07-09T13:30:16;26.75;;;18.60;;
57842;SDS011;43673;51.058;3.734;2023-07-09T13:32:43;30.58;;;19.17;;
57842;SDS011;43673;51.058;3.734;2023-07-09T13:35:14;31.60;;;20.15;;
57842;SDS011;43673;51.058;3.734;2023-07-09T13:37:42;27.75;;;18.63;;
57842;SDS011;43673;51.058;3.734;2023-07-09T13:40:09;29.92;;;18.25;;
57842;SDS011;43673;51.058;3.734;2023-07-09T13:42:37;33.87;;;18.83;;
57842;SDS011;43673;51.058;3.734;2023-07-09T13:45:03;25.45;;;18.00;;
57842;SDS011;43673;51.058;3.734;2023-07-09T13:47:29;27.58;;;18.50;;
57842;SDS011;43673;51.058;3.734;2023-07-09T13:49:55;24.88;;;16.58;;
57842;SDS011;43673;51.058;3.734;2023-07-09T13:52:22;26.92;;;15.77;;
57842;SDS011;43673;51.058;3.734;2023-07-09T13:54:50;19.30;;;13.10;;
57842;SDS011;43673;51.058;3.734;2023-07-09T13:57:17;18.60;;;12.23;;
57842;SDS011;43673;51.058;3.734;2023-07-09T13:59:45;19.20;;;12.65;;
57842;SDS011;43673;51.058;3.734;2023-07-09T14:02:22;14.93;;;11.23;;
57842;SDS011;43673;51.058;3.734;2023-07-09T14:04:51;21.13;;;12.82;;
57842;SDS011;43673;51.058;3.734;2023-07-09T14:07:28;16.67;;;11.25;;
57842;SDS011;43673;51.058;3.734;2023-07-09T14:10:02;19.30;;;12.27;;
57842;SDS011;43673;51.058;3.734;2023-07-09T14:12:29;13.85;;;9.85;;
57842;SDS011;43673;51.058;3.734;2023-07-09T14:14:56;14.65;;;9.82;;
57842;SDS011;43673;51.058;3.734;2023-07-09T14:17:25;15.40;;;10.23;;
57842;SDS011;43673;51.058;3.734;2023-07-09T14:19:51;18.60;;;10.00;;
57842;SDS011;43673;51.058;3.734;2023-07-09T14:22:23;15.68;;;10.35;;
57842;SDS011;43673;51.058;3.734;2023-07-09T14:24:58;15.43;;;8.43;;
57842;SDS011;43673;51.058;3.734;2023-07-09T14:27:25;15.02;;;9.45;;
57842;SDS011;43673;51.058;3.734;2023-07-09T14:29:51;11.77;;;7.90;;
57842;SDS011;43673;51.058;3.734;2023-07-09T14:32:34;12.82;;;9.07;;
57842;SDS011;43673;51.058;3.734;2023-07-09T14:35:02;12.68;;;7.35;;
57842;SDS011;43673;51.058;3.734;2023-07-09T14:37:35;12.68;;;7.55;;
57842;SDS011;43673;51.058;3.734;2023-07-09T14:40:00;18.63;;;8.85;;
57842;SDS011;43673;51.058;3.734;2023-07-09T14:42:26;12.98;;;8.07;;
57842;SDS011;43673;51.058;3.734;2023-07-09T14:44:52;14.73;;;8.13;;
57842;SDS011;43673;51.058;3.734;2023-07-09T14:47:19;10.48;;;7.03;;
57842;SDS011;43673;51.058;3.734;2023-07-09T14:49:46;12.13;;;8.40;;
57842;SDS011;43673;51.058;3.734;2023-07-09T14:52:17;11.38;;;8.50;;
57842;SDS011;43673;51.058;3.734;2023-07-09T14:54:45;10.50;;;7.07;;
57842;SDS011;43673;51.058;3.734;2023-07-09T14:57:17;13.32;;;9.30;;
57842;SDS011;43673;51.058;3.734;2023-07-09T14:59:45;10.00;;;7.10;;
57842;SDS011;43673;51.058;3.734;2023-07-09T15:02:19;10.57;;;7.55;;
57842;SDS011;43673;51.058;3.734;2023-07-09T15:05:03;12.45;;;7.65;;
57842;SDS011;43673;51.058;3.734;2023-07-09T15:07:32;15.88;;;7.47;;
57842;SDS011;43673;51.058;3.734;2023-07-09T15:09:59;12.93;;;7.05;;
57842;SDS011;43673;51.058;3.734;2023-07-09T15:12:30;11.07;;;6.15;;
57842;SDS011;43673;51.058;3.734;2023-07-09T15:15:06;9.40;;;6.03;;
57842;SDS011;43673;51.058;3.734;2023-07-09T15:17:40;8.57;;;5.47;;